.
WxDataArchive / Data Records for 2015-06-05
2015-06-04 June 2015 2015-06-06

Data Records for Friday, 05 June 2015

Time	Temp	Chill	HIndex	Humid	Dewpt	 Wind 	HiWind	WindDir	Rain 	Barom
-----	----	-----	------	-----	-----	------	------	-------	-----	-----
00:00	63.7	63.7	63.7	82	58.1	0	0	---	0.00	29.974 
00:05	63.5	63.5	63.5	82	57.9	0	0	---	0.00	29.974 
00:10	63.4	63.4	63.4	83	58.1	0	0	---	0.00	29.974 
00:15	63.4	63.4	63.4	83	58.1	0	0	---	0.00	29.973 
00:20	63.2	63.2	63.2	83	57.9	0	0	---	0.00	29.973 
00:25	63.1	63.1	63.1	84	58.2	0	0	---	0.00	29.973 
00:30	62.9	62.9	62.9	84	58.0	0	0	---	0.00	29.974 
00:35	62.9	62.9	62.9	84	58.0	0	0	---	0.00	29.974 
00:40	62.7	62.7	62.7	84	57.8	0	0	---	0.00	29.974 
00:45	62.6	62.6	62.6	85	58.0	0	0	---	0.00	29.974 
00:50	62.4	62.4	62.4	85	57.8	0	0	---	0.00	29.974 
00:55	62.3	62.3	62.3	85	57.7	0	0	---	0.00	29.974 
01:00	62.1	62.1	62.1	85	57.5	0	0	---	0.00	29.975 
01:05	62.1	62.1	62.1	85	57.5	0	0	---	0.00	29.975 
01:10	62.0	62.0	62.0	86	57.8	0	0	---	0.00	29.975 
01:15	62.0	62.0	62.0	86	57.8	0	0	---	0.00	29.974 
01:20	61.8	61.8	61.8	86	57.6	0	0	---	0.00	29.974 
01:25	61.8	61.8	61.8	87	57.9	0	0	---	0.00	29.974 
01:30	61.6	61.6	61.6	87	57.7	0	0	---	0.00	29.973 
01:35	61.6	61.6	61.6	87	57.7	0	0	---	0.00	29.973 
01:40	61.6	61.6	61.6	87	57.7	0	0	---	0.00	29.973 
01:45	61.6	61.6	61.6	87	57.7	0	0	---	0.00	29.975 
01:50	61.5	61.5	61.5	87	57.6	0	0	---	0.00	29.975 
01:55	61.5	61.5	61.5	87	57.6	0	0	---	0.00	29.975 
02:00	61.3	61.3	61.3	87	57.4	0	0	---	0.00	29.979 
02:05	61.3	61.3	61.3	87	57.4	0	0	---	0.00	29.979 
02:10	61.3	61.3	61.3	88	57.7	0	0	---	0.00	29.979 
02:15	61.2	61.2	61.2	88	57.6	0	0	---	0.00	29.982 
02:20	61.2	61.2	61.2	88	57.6	0	0	---	0.00	29.982 
02:25	61.2	61.2	61.2	88	57.6	0	0	---	0.00	29.982 
02:30	61.0	61.0	61.0	88	57.4	0	0	---	0.00	29.980 
02:35	61.0	61.0	61.0	88	57.4	0	0	---	0.00	29.980 
02:40	61.0	61.0	61.0	88	57.4	0	0	---	0.00	29.980 
02:45	61.0	61.0	61.0	88	57.4	0	0	---	0.00	29.974 
02:50	61.0	61.0	61.0	88	57.4	0	0	---	0.00	29.974 
02:55	61.0	61.0	61.0	88	57.4	0	0	---	0.00	29.974 
03:00	61.0	61.0	61.0	89	57.7	0	0	---	0.00	29.974 
03:05	61.0	61.0	61.0	89	57.7	0	0	---	0.00	29.974 
03:10	61.0	61.0	61.0	89	57.7	0	0	---	0.00	29.974 
03:15	61.0	61.0	61.0	89	57.7	0	0	---	0.00	29.970 
03:20	61.0	61.0	61.0	89	57.7	0	0	---	0.00	29.970 
03:25	60.9	60.9	60.9	89	57.6	0	0	---	0.00	29.970 
03:30	60.9	60.9	60.9	89	57.6	0	0	---	0.00	29.972 
03:35	61.0	61.0	61.0	89	57.7	0	0	---	0.00	29.972 
03:40	61.0	61.0	61.0	89	57.7	0	0	---	0.00	29.972 
03:45	61.0	61.0	61.0	89	57.7	0	0	---	0.00	29.970 
03:50	61.0	61.0	61.0	89	57.7	0	0	---	0.00	29.970 
03:55	61.0	61.0	61.0	90	58.0	0	0	---	0.00	29.970 
04:00	61.0	61.0	61.0	90	58.0	0	0	---	0.00	29.967 
04:05	60.9	60.9	60.9	90	57.9	0	0	---	0.00	29.967 
04:10	60.9	60.9	60.9	90	57.9	0	0	---	0.00	29.967 
04:15	61.0	61.0	61.0	90	58.0	0	0	---	0.00	29.966 
04:20	61.0	61.0	61.0	90	58.0	0	0	---	0.00	29.966 
04:25	61.2	61.2	61.2	90	58.2	0	0	---	0.00	29.966 
04:30	61.3	61.3	61.3	90	58.3	0	0	---	0.00	29.965 
04:35	61.5	61.5	61.5	90	58.5	0	0	---	0.00	29.965 
04:40	61.8	61.8	61.8	90	58.8	0	0	---	0.00	29.965 
04:45	62.0	62.0	62.0	90	59.0	0	0	---	0.00	29.959 
04:50	62.1	62.1	62.1	90	59.1	0	0	---	0.00	29.959 
04:55	62.1	62.1	62.1	89	58.8	0	0	---	0.00	29.959 
05:00	62.3	62.3	62.3	89	59.0	0	0	---	0.00	29.958 
05:05	62.3	62.3	62.3	89	59.0	0	0	---	0.00	29.958 
05:10	62.3	62.3	62.3	88	58.7	0	0	---	0.00	29.958 
05:15	62.3	62.3	62.3	88	58.7	0	0	---	0.00	29.956 
05:20	62.1	62.1	62.1	88	58.5	0	0	---	0.00	29.956 
05:25	62.1	62.1	62.1	88	58.5	0	0	---	0.00	29.956 
05:30	62.0	62.0	62.0	88	58.4	0	0	---	0.00	29.959 
05:35	61.8	61.8	61.8	88	58.2	0	0	---	0.00	29.959 
05:40	61.6	61.6	61.6	88	58.0	0	0	---	0.00	29.959 
05:45	61.5	61.5	61.5	88	57.9	0	0	---	0.00	29.959 
05:50	61.3	61.3	61.3	88	57.7	0	0	---	0.00	29.959 
05:55	61.3	61.3	61.3	88	57.7	0	0	---	0.00	29.959 
06:00	61.2	61.2	61.2	88	57.6	0	0	---	0.00	29.964 
06:05	60.9	60.9	60.9	88	57.3	0	0	---	0.00	29.964 
06:10	60.7	60.7	60.7	88	57.1	0	0	---	0.00	29.964 
06:15	60.5	60.5	60.5	88	56.9	0	0	---	0.00	29.966 
06:20	60.5	60.5	60.5	89	57.2	0	0	---	0.00	29.966 
06:25	60.4	60.4	60.4	89	57.1	0	0	---	0.00	29.966 
06:30	60.2	60.2	60.2	89	56.9	0	0	---	0.00	29.969 
06:35	60.2	60.2	60.2	89	56.9	0	0	---	0.00	29.969 
06:40	60.2	60.2	60.2	89	56.9	0	0	---	0.00	29.969 
06:45	60.2	60.2	60.2	90	57.3	0	0	---	0.00	29.977 
06:50	60.2	60.2	60.2	90	57.3	0	0	---	0.00	29.977 
06:55	60.4	60.4	60.4	90	57.4	0	0	---	0.00	29.977 
07:00	60.5	60.5	60.5	90	57.5	0	0	---	0.00	29.983 
07:05	60.7	60.7	60.7	90	57.7	0	0	---	0.00	29.983 
07:10	61.0	61.0	61.0	90	58.0	0	0	---	0.00	29.983 
07:15	61.2	61.2	61.2	90	58.2	0	0	---	0.00	29.988 
07:20	61.6	61.6	61.6	90	58.6	0	0	---	0.00	29.988 
07:25	62.1	62.1	62.1	91	59.4	0	0	---	0.00	29.988 
07:30	62.9	62.9	62.9	90	59.9	0	0	---	0.00	29.986 
07:35	63.7	63.7	63.7	90	60.7	0	0	---	0.00	29.986 
07:40	64.5	64.5	64.5	89	61.2	0	0	---	0.00	29.986 
07:45	65.2	65.2	65.2	88	61.6	0	0	---	0.00	29.981 
07:50	65.8	65.8	65.8	86	61.5	0	1	90	0.00	29.981 
07:55	66.4	66.4	66.4	85	61.7	0	1	90	0.00	29.981 
08:00	67.1	67.1	67.1	83	61.8	0	2	90	0.00	29.981 
08:05	67.6	67.6	67.6	81	61.6	0	3	90	0.00	29.981 
08:10	67.9	67.9	67.9	80	61.5	0	1	90	0.00	29.981 
08:15	68.3	68.3	68.3	80	61.9	0	1	90	0.00	29.985 
08:20	68.6	68.6	68.6	80	62.2	0	1	90	0.00	29.985 
08:25	68.9	68.9	68.9	79	62.1	0	2	90	0.00	29.985 
08:30	69.3	69.3	69.3	79	62.5	0	2	90	0.00	29.980 
08:35	69.9	69.9	69.9	79	63.1	0	1	90	0.00	29.980 
08:40	70.4	70.4	70.4	78	63.2	0	1	90	0.00	29.980 
08:45	70.9	70.9	70.9	77	63.3	0	1	90	0.00	29.970 
08:50	71.5	71.5	71.5	77	63.9	0	0	---	0.00	29.970 
08:55	71.8	71.8	71.8	76	63.8	0	1	90	0.00	29.970 
09:00	71.8	71.8	71.8	76	63.8	0	1	90	0.00	29.963 
09:05	72.1	72.1	72.1	77	64.5	0	1	90	0.00	29.963 
09:10	72.5	72.5	72.5	76	64.5	0	1	90	0.00	29.963 
09:15	72.8	72.8	72.8	75	64.4	0	0	---	0.00	29.968 
09:20	73.0	73.0	73.0	75	64.6	0	1	90	0.00	29.968 
09:25	73.2	73.2	73.2	74	64.4	0	2	90	0.00	29.968 
09:30	73.5	73.5	73.5	73	64.3	0	1	90	0.00	29.965 
09:35	74.0	74.0	74.0	74	65.2	0	1	90	0.00	29.965 
09:40	74.2	74.2	74.2	72	64.6	0	0	---	0.00	29.965 
09:45	74.6	74.6	74.6	71	64.6	0	1	90	0.00	29.960 
09:50	74.6	74.6	74.6	71	64.6	0	1	90	0.00	29.960 
09:55	74.9	74.9	74.9	71	64.8	0	1	90	0.00	29.960 
10:00	75.6	75.6	77.2	70	65.1	0	1	90	0.00	29.954 
10:05	76.3	76.3	78.0	69	65.4	0	1	90	0.00	29.954 
10:10	76.5	76.5	78.3	68	65.1	0	1	90	0.00	29.954 
10:15	76.5	76.5	78.3	67	64.7	0	2	90	0.00	29.957 
10:20	76.5	76.5	78.3	67	64.7	1	2	90	0.00	29.957 
10:25	76.5	76.5	78.3	66	64.3	1	3	90	0.00	29.957 
10:30	76.5	76.5	78.3	67	64.7	1	3	90	0.00	29.966 
10:35	76.7	76.7	78.5	67	64.9	1	3	0	0.00	29.966 
10:40	76.8	76.8	78.6	67	65.0	1	3	338	0.00	29.966 
10:45	77.0	77.0	78.8	65	64.3	1	3	315	0.00	29.967 
10:50	77.2	77.2	79.0	65	64.5	2	3	315	0.00	29.967 
10:55	77.4	77.4	79.2	65	64.7	1	3	315	0.00	29.967 
11:00	77.6	77.6	79.4	64	64.4	1	3	315	0.00	29.966 
11:05	77.7	77.7	79.5	63	64.1	1	4	315	0.00	29.966 
11:10	78.1	78.1	79.9	63	64.5	2	3	292	0.00	29.966 
11:15	78.3	78.3	80.1	63	64.6	1	4	292	0.00	29.972 
11:20	78.6	78.6	80.4	63	64.9	1	3	292	0.00	29.972 
11:25	79.0	79.0	80.8	61	64.4	2	5	292	0.00	29.972 
11:30	79.2	79.2	81.1	62	65.0	1	3	292	0.00	29.970 
11:35	79.4	79.4	81.2	61	64.8	1	3	292	0.00	29.970 
11:40	79.6	79.6	81.2	58	63.5	2	5	292	0.00	29.970 
11:45	79.6	79.6	81.3	60	64.5	2	6	292	0.00	29.968 
11:50	79.8	79.8	81.5	59	64.2	2	4	315	0.00	29.968 
11:55	79.9	79.9	81.8	61	65.2	1	3	315	0.00	29.968 
12:00	80.3	80.3	81.9	58	64.2	1	4	315	0.00	29.967 
12:05	80.5	80.5	82.3	59	64.8	1	4	315	0.00	29.967 
12:10	80.9	80.9	82.8	59	65.2	1	3	315	0.00	29.967 
12:15	81.1	81.1	82.5	55	63.4	1	3	315	0.00	29.968 
12:20	80.7	80.7	81.8	53	62.0	2	5	315	0.00	29.968 
12:25	80.5	80.5	81.6	53	61.8	2	5	292	0.00	29.968 
12:30	80.3	80.3	81.4	53	61.6	2	4	292	0.00	29.968 
12:35	80.1	80.1	81.3	54	61.9	2	4	292	0.00	29.968 
12:40	80.3	80.3	81.4	53	61.6	2	5	292	0.00	29.968 
12:45	80.7	80.7	81.8	53	62.0	3	6	292	0.00	29.970 
12:50	80.9	80.9	81.9	52	61.6	3	6	270	0.00	29.970 
12:55	80.9	80.9	82.0	53	62.1	3	6	270	0.00	29.970 
13:00	81.2	81.2	82.3	53	62.4	2	5	270	0.00	29.966 
13:05	80.9	80.9	82.0	53	62.1	3	6	315	0.00	29.966 
13:10	80.1	80.1	81.3	54	61.9	3	7	292	0.00	29.966 
13:15	79.9	79.9	81.1	54	61.7	3	5	292	0.00	29.967 
13:20	80.3	80.3	81.7	56	63.1	2	6	270	0.00	29.967 
13:25	80.9	80.9	82.5	57	64.2	2	5	270	0.00	29.967 
13:30	81.2	81.2	82.6	55	63.5	2	7	270	0.00	29.958 
13:35	81.2	81.2	82.6	55	63.5	2	5	292	0.00	29.958 
13:40	81.2	81.2	82.5	54	62.9	2	5	292	0.00	29.958 
13:45	81.1	81.1	82.3	54	62.9	3	9	315	0.00	29.954 
13:50	80.9	80.9	82.1	54	62.7	2	5	315	0.00	29.954 
13:55	81.4	81.4	82.8	55	63.7	2	5	315	0.00	29.954 
14:00	81.2	81.2	82.5	54	62.9	2	5	315	0.00	29.951 
14:05	81.2	81.2	82.3	53	62.4	2	6	270	0.00	29.951 
14:10	81.2	81.2	82.5	54	62.9	3	8	292	0.00	29.951 
14:15	81.6	81.6	82.8	53	62.8	3	6	292	0.00	29.951 
14:20	81.6	81.6	82.6	52	62.2	3	5	292	0.00	29.951 
14:25	81.8	81.8	82.8	52	62.4	3	6	270	0.00	29.951 
14:30	81.6	81.6	82.5	51	61.7	3	7	292	0.00	29.946 
14:35	81.6	81.6	82.9	54	63.3	3	6	270	0.00	29.946 
14:40	81.6	81.6	82.8	53	62.8	2	5	315	0.00	29.946 
14:45	81.6	81.6	82.9	54	63.3	2	5	315	0.00	29.945 
14:50	81.1	81.1	82.2	53	62.3	3	5	0	0.00	29.945 
14:55	80.9	80.9	82.0	53	62.1	2	5	315	0.00	29.945 
15:00	81.1	81.1	82.2	53	62.3	3	6	315	0.00	29.942 
15:05	81.2	81.2	82.2	52	61.9	3	6	270	0.00	29.942 
15:10	81.4	81.4	82.3	51	61.5	2	5	270	0.00	29.942 
15:15	81.6	81.6	82.5	51	61.7	3	7	292	0.00	29.937 
15:20	81.6	81.6	82.2	49	60.6	3	6	292	0.00	29.937 
15:25	81.6	81.6	82.2	49	60.6	2	6	270	0.00	29.937 
15:30	81.6	81.6	82.3	50	61.1	3	6	292	0.00	29.937 
15:35	81.6	81.6	82.2	49	60.6	3	7	292	0.00	29.937 
15:40	81.4	81.4	81.9	48	59.8	3	7	338	0.00	29.937 
15:45	81.2	81.2	81.7	48	59.6	2	5	292	0.00	29.939 
15:50	81.2	81.2	81.7	48	59.6	3	5	292	0.00	29.939 
15:55	81.1	81.1	81.4	46	58.3	3	6	292	0.00	29.939 
16:00	81.1	81.1	81.4	46	58.3	3	6	338	0.00	29.939 
16:05	80.9	80.9	81.1	45	57.5	2	5	338	0.00	29.939 
16:10	80.9	80.9	81.2	46	58.2	2	5	338	0.00	29.939 
16:15	81.1	81.1	81.1	44	57.1	3	6	292	0.00	29.938 
16:20	81.2	81.2	81.3	45	57.8	2	3	315	0.00	29.938 
16:25	81.4	81.4	81.6	46	58.6	2	4	315	0.00	29.938 
16:30	81.6	81.6	81.9	47	59.4	1	5	338	0.00	29.935 
16:35	82.0	82.0	82.3	47	59.8	1	4	270	0.00	29.935 
16:40	81.8	81.8	81.9	45	58.4	3	6	270	0.00	29.935 
16:45	81.8	81.8	82.0	46	59.0	1	3	338	0.00	29.935 
16:50	81.4	81.4	81.6	46	58.6	2	4	338	0.00	29.935 
16:55	81.6	81.6	81.9	47	59.4	2	4	292	0.00	29.935 
17:00	81.4	81.4	81.6	46	58.6	2	6	338	0.00	29.937 
17:05	81.2	81.2	81.5	46	58.4	2	6	338	0.00	29.937 
17:10	81.4	81.4	81.6	46	58.6	3	5	270	0.00	29.937 
17:15	81.4	81.4	81.6	46	58.6	2	4	315	0.00	29.937 
17:20	81.4	81.4	81.4	44	57.4	2	6	292	0.00	29.937 
17:25	81.2	81.2	81.2	44	57.2	2	3	315	0.00	29.937 
17:30	81.1	81.1	81.5	47	58.9	1	3	338	0.00	29.938 
17:35	81.1	81.1	81.1	44	57.1	2	6	292	0.00	29.938 
17:40	80.9	80.9	81.0	44	56.9	3	6	292	0.00	29.938 
17:45	80.7	80.7	80.9	45	57.4	2	6	315	0.00	29.938 
17:50	80.3	80.3	80.5	44	56.4	3	5	338	0.00	29.938 
17:55	80.3	80.3	80.7	46	57.6	1	5	338	0.00	29.938 
18:00	80.5	80.5	80.7	45	57.2	2	5	315	0.00	29.937 
18:05	80.3	80.3	80.6	45	57.0	1	5	315	0.00	29.937 
18:10	80.3	80.3	80.5	44	56.4	2	6	315	0.00	29.937 
18:15	80.3	80.3	80.6	45	57.0	2	5	292	0.00	29.935 
18:20	80.1	80.1	80.4	45	56.8	1	3	292	0.00	29.935 
18:25	79.9	79.9	80.2	44	56.0	2	5	315	0.00	29.935 
18:30	79.8	79.8	80.3	46	57.2	1	3	315	0.00	29.930 
18:35	79.8	79.8	80.3	46	57.2	1	4	338	0.00	29.930 
18:40	79.6	79.6	80.2	47	57.6	2	5	315	0.00	29.930 
18:45	79.4	79.4	80.1	47	57.4	2	5	315	0.00	29.933 
18:50	79.2	79.2	79.9	47	57.2	2	5	292	0.00	29.933 
18:55	79.0	79.0	79.9	49	58.2	3	6	315	0.00	29.933 
19:00	78.8	78.8	79.8	50	58.6	2	6	338	0.00	29.931 
19:05	78.6	78.6	79.7	51	58.9	2	5	315	0.00	29.931 
19:10	78.3	78.3	79.6	53	59.7	2	6	338	0.00	29.931 
19:15	77.9	77.9	79.3	54	59.9	2	5	338	0.00	29.935 
19:20	77.4	77.4	79.0	55	59.9	2	6	315	0.00	29.935 
19:25	76.8	76.8	78.6	56	59.9	2	6	315	0.00	29.935 
19:30	76.5	76.5	78.4	57	60.1	2	7	315	0.00	29.939 
19:35	76.0	76.0	78.0	58	60.1	3	6	338	0.00	29.939 
19:40	75.6	75.6	77.8	59	60.2	2	6	0	0.00	29.939 
19:45	75.3	75.3	77.6	59	60.0	1	4	0	0.00	29.953 
19:50	74.7	74.7	74.7	60	59.9	2	5	315	0.00	29.953 
19:55	74.4	74.4	74.4	60	59.6	3	5	315	0.00	29.953 
20:00	73.9	73.9	73.9	61	59.6	2	5	0	0.00	29.961 
20:05	73.3	73.3	73.3	62	59.5	2	9	292	0.00	29.961 
20:10	72.8	72.8	72.8	62	59.0	2	6	315	0.00	29.961 
20:15	72.7	72.7	72.7	63	59.4	2	5	338	0.00	29.963 
20:20	72.3	72.3	72.3	63	59.0	1	3	315	0.00	29.963 
20:25	72.0	72.0	72.0	64	59.1	1	3	315	0.00	29.963 
20:30	71.8	71.8	71.8	65	59.4	0	2	338	0.00	29.967 
20:35	71.5	71.5	71.5	65	59.1	1	4	338	0.00	29.967 
20:40	71.1	71.1	71.1	65	58.7	1	4	315	0.00	29.967 
20:45	70.9	70.9	70.9	66	59.0	0	2	270	0.00	29.969 
20:50	70.6	70.6	70.6	66	58.7	1	4	270	0.00	29.969 
20:55	70.3	70.3	70.3	67	58.8	1	4	270	0.00	29.969 
21:00	70.1	70.1	70.1	67	58.6	1	5	315	0.00	29.971 
21:05	69.8	69.8	69.8	68	58.7	0	3	315	0.00	29.971 
21:10	69.6	69.6	69.6	68	58.6	1	3	338	0.00	29.971 
21:15	69.4	69.4	69.4	69	58.8	1	6	338	0.00	29.972 
21:20	69.1	69.1	69.1	69	58.5	1	4	338	0.00	29.972 
21:25	68.9	68.9	68.9	69	58.3	0	3	315	0.00	29.972 
21:30	68.8	68.8	68.8	70	58.6	0	2	315	0.00	29.980 
21:35	68.6	68.6	68.6	71	58.8	0	1	315	0.00	29.980 
21:40	68.4	68.4	68.4	71	58.6	1	4	315	0.00	29.980 
21:45	68.3	68.3	68.3	72	58.9	1	2	315	0.00	29.983 
21:50	68.3	68.3	68.3	72	58.9	0	3	315	0.00	29.983 
21:55	68.1	68.1	68.1	73	59.1	0	2	315	0.00	29.983 
22:00	67.9	67.9	67.9	74	59.3	0	4	270	0.00	29.985 
22:05	67.9	67.9	67.9	74	59.3	0	3	270	0.00	29.985 
22:10	67.8	67.8	67.8	75	59.6	0	3	270	0.00	29.985 
22:15	67.6	67.6	67.6	76	59.8	0	2	270	0.00	29.997 
22:20	67.6	67.6	67.6	76	59.8	0	3	270	0.00	29.997 
22:25	67.4	67.4	67.4	77	59.9	1	5	112	0.00	29.997 
22:30	67.3	67.3	67.3	77	59.8	0	4	112	0.00	30.001 
22:35	66.9	66.9	66.9	77	59.4	2	7	315	0.00	30.001 
22:40	66.8	66.8	66.8	78	59.7	1	6	45	0.00	30.001 
22:45	66.4	66.4	66.4	78	59.3	2	6	315	0.00	30.008 
22:50	66.3	66.3	66.3	79	59.6	1	4	315	0.00	30.008 
22:55	66.1	66.1	66.1	79	59.4	2	10	112	0.00	30.008 
23:00	66.0	66.0	66.0	79	59.3	1	4	135	0.00	30.012 
23:05	66.0	66.0	66.0	79	59.3	1	5	112	0.00	30.012 
23:10	65.8	65.8	65.8	79	59.1	1	5	90	0.00	30.012 
23:15	65.6	65.6	65.6	78	58.5	1	7	90	0.00	30.013 
23:20	65.6	65.6	65.6	78	58.5	1	8	135	0.00	30.013 
23:25	65.5	65.5	65.5	78	58.5	1	6	45	0.00	30.013 
23:30	65.5	65.5	65.5	79	58.8	1	4	112	0.00	30.015 
23:35	65.5	65.5	65.5	79	58.8	1	5	90	0.00	30.015 
23:40	65.3	65.3	65.3	79	58.6	1	3	90	0.00	30.015 
23:45	65.3	65.3	65.3	79	58.6	0	2	90	0.00	30.016 
23:50	65.3	65.3	65.3	79	58.6	1	3	90	0.00	30.016 
23:55	65.3	65.3	65.3	79	58.6	1	3	248	0.00	30.016 

CoCoRaHS
IN-AL-39
A2 Web Hosting
Creative Commons License
GoDaddy
search engine by freefind advanced

loaded 2018-11-21 01:45:32 • last modified 2010-11-18 10:43:29
Privacy PolicyDisclaimer
• wx.awcolley.com is powered by PmWiki v.2002016 •
• all content (unless otherwise noted) © 2018 A W Colley